ePrivacy and GPDR Cookie Consent by Cookie Consent
EmailTwitter


Observations de surface / Québec / CYHU (71371)

Régions: Québec | Canada | États-Unis | Europe | France | UK | Ailleurs
Station
Affichage
Infos & localisation pour CYHU (71371) | Aide pour décoder les METARs

Observations prises le 2021-04-18 à 08H00 UTC à MONTREAL/ST HUBE, QB (CYHU)

Etat du ciel: couvert.

Température: 4.0 Celsius

Point de rosée: 1.0 Celsius

Humidité relative: 81%

Vents: Nord à 7 km/h ou 4 noeuds.

Pression au niveau moyen de la mer: 100.88 kilopascals.

Calage altimétrique: 100.85 kilopascals ou 29.78 pouces de mercure.

Visibilité horizontale: 9.00 milles terrestres ou 14.40 kilomètres.

Hauteur du plafond: 2621 mètres ( 8600 pieds ).

Observation METAR:

CYHU 180800Z AUTO 01004KT 9SM OVC086 04/01 A2978 RMK SLP088=